sensor_id;sensor_type;location;lat;lon;timestamp;pressure;altitude;pressure_sealevel;temperature;humidity
61014;BME280;46899;47.542;19.082;2023-08-24T00:00:00;100514.69;;;22.33;100.00
61014;BME280;46899;47.542;19.082;2023-08-24T00:03:10;100503.00;;;22.36;100.00
61014;BME280;46899;47.542;19.082;2023-08-24T00:06:13;100504.09;;;22.33;100.00
61014;BME280;46899;47.542;19.082;2023-08-24T00:09:15;100495.06;;;22.25;100.00
61014;BME280;46899;47.542;19.082;2023-08-24T00:12:18;100499.91;;;22.20;100.00
61014;BME280;46899;47.542;19.082;2023-08-24T00:15:20;100498.72;;;22.13;100.00
61014;BME280;46899;47.542;19.082;2023-08-24T00:18:24;100482.56;;;22.05;100.00
61014;BME280;46899;47.542;19.082;2023-08-24T00:21:26;100483.78;;;22.01;100.00
61014;BME280;46899;47.542;19.082;2023-08-24T00:24:29;100483.31;;;21.96;100.00
61014;BME280;46899;47.542;19.082;2023-08-24T00:27:31;100487.19;;;21.92;100.00
61014;BME280;46899;47.542;19.082;2023-08-24T00:30:34;100484.91;;;21.87;100.00
61014;BME280;46899;47.542;19.082;2023-08-24T00:33:36;100496.06;;;21.79;100.00
61014;BME280;46899;47.542;19.082;2023-08-24T00:36:39;100492.47;;;21.80;100.00
61014;BME280;46899;47.542;19.082;2023-08-24T00:39:41;100501.00;;;21.73;100.00
61014;BME280;46899;47.542;19.082;2023-08-24T00:42:44;100508.34;;;21.69;100.00
61014;BME280;46899;47.542;19.082;2023-08-24T00:45:48;100503.03;;;21.69;100.00
61014;BME280;46899;47.542;19.082;2023-08-24T00:48:51;100500.75;;;21.65;100.00
61014;BME280;46899;47.542;19.082;2023-08-24T00:51:54;100501.84;;;21.62;100.00
61014;BME280;46899;47.542;19.082;2023-08-24T00:55:00;100501.72;;;21.64;100.00
61014;BME280;46899;47.542;19.082;2023-08-24T00:58:03;100507.13;;;21.62;100.00
61014;BME280;46899;47.542;19.082;2023-08-24T01:01:06;100507.50;;;21.58;100.00
61014;BME280;46899;47.542;19.082;2023-08-24T01:04:09;100498.97;;;21.54;100.00
61014;BME280;46899;47.542;19.082;2023-08-24T01:07:14;100510.63;;;21.52;100.00
61014;BME280;46899;47.542;19.082;2023-08-24T01:10:17;100510.41;;;21.55;100.00
61014;BME280;46899;47.542;19.082;2023-08-24T01:13:21;100513.41;;;21.50;100.00
61014;BME280;46899;47.542;19.082;2023-08-24T01:16:28;100509.78;;;21.51;100.00
61014;BME280;46899;47.542;19.082;2023-08-24T01:25:42;100500.75;;;21.54;100.00
61014;BME280;46899;47.542;19.082;2023-08-24T01:28:48;100493.88;;;21.51;100.00
61014;BME280;46899;47.542;19.082;2023-08-24T01:31:51;100500.28;;;21.49;100.00
61014;BME280;46899;47.542;19.082;2023-08-24T01:34:53;100495.47;;;21.54;100.00
61014;BME280;46899;47.542;19.082;2023-08-24T01:37:56;100500.16;;;21.50;100.00
61014;BME280;46899;47.542;19.082;2023-08-24T01:44:12;100503.75;;;21.49;100.00
61014;BME280;46899;47.542;19.082;2023-08-24T01:47:15;100504.25;;;21.54;100.00
61014;BME280;46899;47.542;19.082;2023-08-24T01:50:18;100502.09;;;21.59;100.00
61014;BME280;46899;47.542;19.082;2023-08-24T01:53:21;100507.97;;;21.63;100.00
61014;BME280;46899;47.542;19.082;2023-08-24T01:56:24;100508.84;;;21.63;100.00
61014;BME280;46899;47.542;19.082;2023-08-24T01:59:27;100501.59;;;21.65;100.00
61014;BME280;46899;47.542;19.082;2023-08-24T02:02:30;100498.47;;;21.60;100.00
61014;BME280;46899;47.542;19.082;2023-08-24T02:05:33;100505.91;;;21.55;100.00
61014;BME280;46899;47.542;19.082;2023-08-24T02:08:35;100502.47;;;21.55;100.00
61014;BME280;46899;47.542;19.082;2023-08-24T02:11:38;100501.97;;;21.50;100.00
61014;BME280;46899;47.542;19.082;2023-08-24T02:14:40;100501.13;;;21.49;100.00
61014;BME280;46899;47.542;19.082;2023-08-24T02:17:43;100497.16;;;21.55;100.00
61014;BME280;46899;47.542;19.082;2023-08-24T02:20:46;100502.09;;;21.59;100.00
61014;BME280;46899;47.542;19.082;2023-08-24T02:23:49;100501.59;;;21.65;100.00
61014;BME280;46899;47.542;19.082;2023-08-24T02:26:51;100496.53;;;21.62;100.00
61014;BME280;46899;47.542;19.082;2023-08-24T02:29:54;100498.47;;;21.60;100.00
61014;BME280;46899;47.542;19.082;2023-08-24T02:32:57;100494.03;;;21.61;100.00
61014;BME280;46899;47.542;19.082;2023-08-24T02:36:00;100482.84;;;21.57;100.00
61014;BME280;46899;47.542;19.082;2023-08-24T02:39:03;100491.97;;;21.53;100.00
61014;BME280;46899;47.542;19.082;2023-08-24T02:42:07;100486.31;;;21.47;100.00
61014;BME280;46899;47.542;19.082;2023-08-24T02:45:10;100485.94;;;21.40;100.00
61014;BME280;46899;47.542;19.082;2023-08-24T02:48:13;100484.97;;;21.30;100.00
61014;BME280;46899;47.542;19.082;2023-08-24T02:51:15;100491.47;;;21.26;100.00
61014;BME280;46899;47.542;19.082;2023-08-24T02:54:18;100485.19;;;21.27;100.00
61014;BME280;46899;47.542;19.082;2023-08-24T02:57:23;100483.88;;;21.22;100.00
61014;BME280;46899;47.542;19.082;2023-08-24T03:00:26;100483.03;;;21.21;100.00
61014;BME280;46899;47.542;19.082;2023-08-24T03:03:29;100485.91;;;21.18;100.00
61014;BME280;46899;47.542;19.082;2023-08-24T03:06:32;100480.13;;;21.13;100.00
61014;BME280;46899;47.542;19.082;2023-08-24T03:09:34;100484.69;;;21.11;100.00
61014;BME280;46899;47.542;19.082;2023-08-24T03:12:37;100479.62;;;21.08;100.00
61014;BME280;46899;47.542;19.082;2023-08-24T03:15:40;100484.19;;;21.06;100.00
61014;BME280;46899;47.542;19.082;2023-08-24T03:18:43;100480.78;;;21.04;100.00
61014;BME280;46899;47.542;19.082;2023-08-24T03:21:45;100486.06;;;21.04;100.00
61014;BME280;46899;47.542;19.082;2023-08-24T03:24:48;100484.50;;;21.01;100.00
61014;BME280;46899;47.542;19.082;2023-08-24T03:27:50;100484.84;;;20.97;100.00
61014;BME280;46899;47.542;19.082;2023-08-24T03:30:53;100482.44;;;20.94;100.00
61014;BME280;46899;47.542;19.082;2023-08-24T03:33:58;100482.78;;;20.89;100.00
61014;BME280;46899;47.542;19.082;2023-08-24T03:37:01;100490.12;;;20.86;100.00
61014;BME280;46899;47.542;19.082;2023-08-24T03:40:03;100492.56;;;20.89;100.00
61014;BME280;46899;47.542;19.082;2023-08-24T03:43:06;100491.56;;;20.90;100.00
61014;BME280;46899;47.542;19.082;2023-08-24T03:46:08;100487.34;;;20.87;100.00
61014;BME280;46899;47.542;19.082;2023-08-24T03:49:15;100498.06;;;20.86;100.00
61014;BME280;46899;47.542;19.082;2023-08-24T03:52:17;100491.91;;;20.85;100.00
61014;BME280;46899;47.542;19.082;2023-08-24T03:55:20;100496.50;;;20.83;100.00
61014;BME280;46899;47.542;19.082;2023-08-24T03:58:23;100493.22;;;20.80;100.00
61014;BME280;46899;47.542;19.082;2023-08-24T04:01:26;100503.06;;;20.78;100.00
61014;BME280;46899;47.542;19.082;2023-08-24T04:04:32;100494.41;;;20.76;100.00
61014;BME280;46899;47.542;19.082;2023-08-24T04:07:34;100503.06;;;20.78;100.00
61014;BME280;46899;47.542;19.082;2023-08-24T04:10:39;100492.75;;;20.75;100.00
61014;BME280;46899;47.542;19.082;2023-08-24T04:13:41;100505.22;;;20.73;100.00
61014;BME280;46899;47.542;19.082;2023-08-24T04:16:44;100504.03;;;20.77;100.00
61014;BME280;46899;47.542;19.082;2023-08-24T04:19:46;100506.44;;;20.80;100.00
61014;BME280;46899;47.542;19.082;2023-08-24T04:22:49;100514.28;;;20.81;100.00
61014;BME280;46899;47.542;19.082;2023-08-24T04:25:51;100509.72;;;20.83;100.00
61014;BME280;46899;47.542;19.082;2023-08-24T04:28:54;100510.56;;;20.84;100.00
61014;BME280;46899;47.542;19.082;2023-08-24T04:31:56;100506.50;;;20.91;100.00
61014;BME280;46899;47.542;19.082;2023-08-24T04:34:59;100513.25;;;20.95;100.00
61014;BME280;46899;47.542;19.082;2023-08-24T04:38:01;100511.81;;;21.02;100.00
61014;BME280;46899;47.542;19.082;2023-08-24T04:41:06;100518.37;;;21.09;100.00
61014;BME280;46899;47.542;19.082;2023-08-24T04:44:09;100517.06;;;21.15;100.00
61014;BME280;46899;47.542;19.082;2023-08-24T04:47:12;100515.50;;;21.23;100.00
61014;BME280;46899;47.542;19.082;2023-08-24T04:50:14;100512.75;;;21.25;100.00
61014;BME280;46899;47.542;19.082;2023-08-24T04:53:17;100511.44;;;21.30;100.00
61014;BME280;46899;47.542;19.082;2023-08-24T04:56:20;100525.53;;;21.42;100.00
61014;BME280;46899;47.542;19.082;2023-08-24T04:59:22;100526.38;;;21.53;100.00
61014;BME280;46899;47.542;19.082;2023-08-24T05:02:25;100529.53;;;21.58;100.00
61014;BME280;46899;47.542;19.082;2023-08-24T05:05:31;100537.12;;;21.63;100.00
61014;BME280;46899;47.542;19.082;2023-08-24T05:08:33;100543.53;;;21.71;100.00
61014;BME280;46899;47.542;19.082;2023-08-24T05:11:36;100545.00;;;21.87;100.00
61014;BME280;46899;47.542;19.082;2023-08-24T05:14:38;100542.81;;;21.92;100.00
61014;BME280;46899;47.542;19.082;2023-08-24T05:17:41;100549.94;;;21.91;100.00
61014;BME280;46899;47.542;19.082;2023-08-24T05:20:43;100541.72;;;22.05;100.00
61014;BME280;46899;47.542;19.082;2023-08-24T05:23:46;100547.50;;;22.10;100.00
61014;BME280;46899;47.542;19.082;2023-08-24T05:26:48;100544.03;;;22.21;100.00
61014;BME280;46899;47.542;19.082;2023-08-24T05:29:51;100552.91;;;22.31;100.00
61014;BME280;46899;47.542;19.082;2023-08-24T05:32:55;100539.13;;;22.48;100.00
61014;BME280;46899;47.542;19.082;2023-08-24T05:35:58;100549.72;;;22.70;100.00
61014;BME280;46899;47.542;19.082;2023-08-24T05:39:01;100542.19;;;22.75;100.00
61014;BME280;46899;47.542;19.082;2023-08-24T05:42:08;100551.81;;;22.87;100.00
61014;BME280;46899;47.542;19.082;2023-08-24T05:45:11;100546.34;;;23.00;100.00
61014;BME280;46899;47.542;19.082;2023-08-24T05:48:14;100553.75;;;23.17;100.00
61014;BME280;46899;47.542;19.082;2023-08-24T05:51:17;100552.13;;;23.26;100.00
61014;BME280;46899;47.542;19.082;2023-08-24T05:54:19;100552.56;;;23.31;100.00
61014;BME280;46899;47.542;19.082;2023-08-24T05:57:22;100550.00;;;23.40;100.00
61014;BME280;46899;47.542;19.082;2023-08-24T06:00:25;100552.53;;;23.42;100.00
61014;BME280;46899;47.542;19.082;2023-08-24T06:03:27;100555.25;;;23.51;100.00
61014;BME280;46899;47.542;19.082;2023-08-24T06:06:30;100555.91;;;23.64;100.00
61014;BME280;46899;47.542;19.082;2023-08-24T06:09:32;100555.16;;;23.83;100.00
61014;BME280;46899;47.542;19.082;2023-08-24T06:12:35;100552.34;;;24.15;100.00
61014;BME280;46899;47.542;19.082;2023-08-24T06:15:37;100553.53;;;24.31;100.00
61014;BME280;46899;47.542;19.082;2023-08-24T06:18:40;100550.59;;;24.34;100.00
61014;BME280;46899;47.542;19.082;2023-08-24T06:21:42;100550.34;;;24.37;100.00
61014;BME280;46899;47.542;19.082;2023-08-24T06:24:45;100560.69;;;24.50;100.00
61014;BME280;46899;47.542;19.082;2023-08-24T06:27:48;100562.13;;;24.73;99.21
61014;BME280;46899;47.542;19.082;2023-08-24T06:30:50;100561.75;;;24.97;97.92
61014;BME280;46899;47.542;19.082;2023-08-24T06:33:53;100555.47;;;24.98;99.22
61014;BME280;46899;47.542;19.082;2023-08-24T06:36:56;100558.97;;;25.18;97.44
61014;BME280;46899;47.542;19.082;2023-08-24T06:40:03;100556.97;;;25.39;95.23
61014;BME280;46899;47.542;19.082;2023-08-24T06:43:06;100561.16;;;25.51;93.59
61014;BME280;46899;47.542;19.082;2023-08-24T06:46:09;100560.44;;;25.58;91.43
61014;BME280;46899;47.542;19.082;2023-08-24T06:49:12;100567.94;;;26.28;86.88
61014;BME280;46899;47.542;19.082;2023-08-24T06:52:14;100571.25;;;29.94;66.49
61014;BME280;46899;47.542;19.082;2023-08-24T06:55:16;100586.22;;;34.54;49.80
61014;BME280;46899;47.542;19.082;2023-08-24T06:58:19;100589.53;;;36.39;42.60
61014;BME280;46899;47.542;19.082;2023-08-24T07:01:22;100589.00;;;39.42;35.58
61014;BME280;46899;47.542;19.082;2023-08-24T07:04:25;100585.84;;;41.00;32.35
61014;BME280;46899;47.542;19.082;2023-08-24T07:07:28;100584.81;;;42.75;29.05
61014;BME280;46899;47.542;19.082;2023-08-24T07:10:31;100573.56;;;44.09;26.79
61014;BME280;46899;47.542;19.082;2023-08-24T07:13:35;100582.38;;;45.08;25.91
61014;BME280;46899;47.542;19.082;2023-08-24T07:16:37;100577.62;;;44.63;25.47
61014;BME280;46899;47.542;19.082;2023-08-24T07:19:40;100583.47;;;45.63;24.32
61014;BME280;46899;47.542;19.082;2023-08-24T07:22:42;100574.28;;;42.62;27.75
61014;BME280;46899;47.542;19.082;2023-08-24T07:25:45;100576.88;;;42.74;28.26
61014;BME280;46899;47.542;19.082;2023-08-24T07:28:48;100578.47;;;42.97;27.71
61014;BME280;46899;47.542;19.082;2023-08-24T07:31:50;100572.28;;;44.37;25.74
61014;BME280;46899;47.542;19.082;2023-08-24T07:34:53;100578.47;;;44.99;25.20
61014;BME280;46899;47.542;19.082;2023-08-24T07:37:55;100580.03;;;46.01;23.97
61014;BME280;46899;47.542;19.082;2023-08-24T07:40:58;100581.72;;;44.61;25.44
61014;BME280;46899;47.542;19.082;2023-08-24T07:44:01;100581.25;;;45.65;24.01
61014;BME280;46899;47.542;19.082;2023-08-24T07:47:04;100571.22;;;46.09;23.25
61014;BME280;46899;47.542;19.082;2023-08-24T07:50:07;100564.97;;;43.90;25.57
61014;BME280;46899;47.542;19.082;2023-08-24T07:53:10;100560.78;;;41.03;29.00
61014;BME280;46899;47.542;19.082;2023-08-24T07:56:12;100555.72;;;36.55;36.63
61014;BME280;46899;47.542;19.082;2023-08-24T07:59:15;100551.59;;;34.36;41.35
61014;BME280;46899;47.542;19.082;2023-08-24T08:02:17;100554.69;;;33.86;42.34
61014;BME280;46899;47.542;19.082;2023-08-24T08:05:20;100547.28;;;32.97;43.91
61014;BME280;46899;47.542;19.082;2023-08-24T08:08:23;100551.25;;;33.71;44.32
61014;BME280;46899;47.542;19.082;2023-08-24T08:11:26;100552.81;;;33.87;42.62
61014;BME280;46899;47.542;19.082;2023-08-24T08:14:29;100552.84;;;33.38;42.88
61014;BME280;46899;47.542;19.082;2023-08-24T08:17:32;100544.72;;;33.31;40.00
61014;BME280;46899;47.542;19.082;2023-08-24T08:20:35;100549.50;;;32.01;41.62
61014;BME280;46899;47.542;19.082;2023-08-24T08:23:38;100561.22;;;30.96;45.38
61014;BME280;46899;47.542;19.082;2023-08-24T08:26:41;100559.88;;;31.37;42.87
61014;BME280;46899;47.542;19.082;2023-08-24T08:29:43;100555.69;;;31.35;44.75
61014;BME280;46899;47.542;19.082;2023-08-24T08:32:45;100561.50;;;31.46;42.47
61014;BME280;46899;47.542;19.082;2023-08-24T08:35:48;100564.94;;;30.64;45.31
61014;BME280;46899;47.542;19.082;2023-08-24T08:38:51;100560.47;;;31.25;45.95
61014;BME280;46899;47.542;19.082;2023-08-24T08:41:53;100553.34;;;31.84;43.91
61014;BME280;46899;47.542;19.082;2023-08-24T08:44:56;100553.81;;;31.72;44.20
61014;BME280;46899;47.542;19.082;2023-08-24T08:47:59;100557.62;;;31.93;42.30
61014;BME280;46899;47.542;19.082;2023-08-24T08:51:02;100552.22;;;31.93;42.07
61014;BME280;46899;47.542;19.082;2023-08-24T08:54:05;100553.62;;;31.74;41.78
61014;BME280;46899;47.542;19.082;2023-08-24T08:57:07;100547.41;;;30.99;45.40
61014;BME280;46899;47.542;19.082;2023-08-24T09:00:10;100542.78;;;30.85;46.25
61014;BME280;46899;47.542;19.082;2023-08-24T09:03:18;100536.09;;;31.41;43.48
61014;BME280;46899;47.542;19.082;2023-08-24T09:06:22;100540.44;;;30.59;46.26
61014;BME280;46899;47.542;19.082;2023-08-24T09:09:25;100532.00;;;30.62;43.97
61014;BME280;46899;47.542;19.082;2023-08-24T09:12:30;100527.19;;;30.80;46.91
61014;BME280;46899;47.542;19.082;2023-08-24T09:15:36;100523.69;;;31.02;46.99
61014;BME280;46899;47.542;19.082;2023-08-24T09:18:43;100523.19;;;30.76;47.91
61014;BME280;46899;47.542;19.082;2023-08-24T09:21:45;100529.59;;;30.75;49.10
61014;BME280;46899;47.542;19.082;2023-08-24T09:24:48;100532.31;;;30.44;47.54
61014;BME280;46899;47.542;19.082;2023-08-24T09:28:02;100526.06;;;30.75;46.24
61014;BME280;46899;47.542;19.082;2023-08-24T09:31:11;100521.53;;;30.98;46.53
61014;BME280;46899;47.542;19.082;2023-08-24T09:34:14;100514.53;;;31.11;46.17
61014;BME280;46899;47.542;19.082;2023-08-24T09:37:17;100512.81;;;30.96;45.82
61014;BME280;46899;47.542;19.082;2023-08-24T09:40:23;100509.78;;;30.99;45.21
61014;BME280;46899;47.542;19.082;2023-08-24T09:43:26;100512.25;;;31.23;43.38
61014;BME280;46899;47.542;19.082;2023-08-24T09:46:32;100513.28;;;31.37;43.40
61014;BME280;46899;47.542;19.082;2023-08-24T09:49:35;100507.91;;;31.37;42.45
61014;BME280;46899;47.542;19.082;2023-08-24T09:52:38;100497.38;;;31.50;42.39
61014;BME280;46899;47.542;19.082;2023-08-24T09:55:43;100495.13;;;31.68;40.79
61014;BME280;46899;47.542;19.082;2023-08-24T09:58:46;100502.13;;;31.77;41.34
61014;BME280;46899;47.542;19.082;2023-08-24T10:01:50;100499.88;;;32.10;41.46
61014;BME280;46899;47.542;19.082;2023-08-24T10:04:54;100511.03;;;32.07;40.28
61014;BME280;46899;47.542;19.082;2023-08-24T10:07:57;100510.94;;;32.00;42.07
61014;BME280;46899;47.542;19.082;2023-08-24T10:11:00;100499.88;;;31.66;41.92
61014;BME280;46899;47.542;19.082;2023-08-24T10:14:15;100500.50;;;31.68;43.03
61014;BME280;46899;47.542;19.082;2023-08-24T10:17:22;100509.81;;;31.80;42.43
61014;BME280;46899;47.542;19.082;2023-08-24T10:20:25;100499.34;;;32.35;40.88
61014;BME280;46899;47.542;19.082;2023-08-24T10:23:31;100500.97;;;32.15;41.46
61014;BME280;46899;47.542;19.082;2023-08-24T10:26:36;100500.16;;;32.51;40.05
61014;BME280;46899;47.542;19.082;2023-08-24T10:29:41;100494.44;;;32.81;37.58
61014;BME280;46899;47.542;19.082;2023-08-24T10:32:44;100489.78;;;32.69;36.93
61014;BME280;46899;47.542;19.082;2023-08-24T10:35:48;100480.75;;;32.40;36.77
61014;BME280;46899;47.542;19.082;2023-08-24T10:38:51;100476.88;;;32.64;36.39
61014;BME280;46899;47.542;19.082;2023-08-24T10:41:57;100463.19;;;32.87;35.43
61014;BME280;46899;47.542;19.082;2023-08-24T10:45:02;100468.53;;;32.80;35.08
61014;BME280;46899;47.542;19.082;2023-08-24T10:48:07;100467.16;;;32.91;34.65
61014;BME280;46899;47.542;19.082;2023-08-24T10:54:16;100461.13;;;33.10;33.89
61014;BME280;46899;47.542;19.082;2023-08-24T10:57:35;100464.94;;;33.22;34.19
61014;BME280;46899;47.542;19.082;2023-08-24T11:00:38;100463.72;;;33.59;34.73
61014;BME280;46899;47.542;19.082;2023-08-24T11:03:41;100467.75;;;33.69;33.22
61014;BME280;46899;47.542;19.082;2023-08-24T11:06:59;100461.53;;;33.75;33.86
61014;BME280;46899;47.542;19.082;2023-08-24T11:10:10;100456.84;;;33.97;33.26
61014;BME280;46899;47.542;19.082;2023-08-24T11:13:14;100457.41;;;33.80;33.51
61014;BME280;46899;47.542;19.082;2023-08-24T11:16:37;100451.44;;;33.91;33.31
61014;BME280;46899;47.542;19.082;2023-08-24T11:19:46;100454.25;;;34.17;32.84
61014;BME280;46899;47.542;19.082;2023-08-24T11:22:48;100451.41;;;33.50;33.15
61014;BME280;46899;47.542;19.082;2023-08-24T11:25:52;100451.41;;;33.50;33.74
61014;BME280;46899;47.542;19.082;2023-08-24T11:29:05;100446.78;;;33.37;33.59
61014;BME280;46899;47.542;19.082;2023-08-24T11:32:08;100453.44;;;33.75;33.76
61014;BME280;46899;47.542;19.082;2023-08-24T11:35:10;100443.94;;;33.52;33.21
61014;BME280;46899;47.542;19.082;2023-08-24T11:38:14;100452.53;;;33.55;33.63
61014;BME280;46899;47.542;19.082;2023-08-24T11:41:17;100446.50;;;33.53;33.63
61014;BME280;46899;47.542;19.082;2023-08-24T11:44:20;100442.66;;;33.41;32.93
61014;BME280;46899;47.542;19.082;2023-08-24T11:47:30;100429.31;;;33.67;32.13
61014;BME280;46899;47.542;19.082;2023-08-24T11:50:33;100432.12;;;33.19;34.02
61014;BME280;46899;47.542;19.082;2023-08-24T11:53:44;100438.66;;;33.03;33.56
61014;BME280;46899;47.542;19.082;2023-08-24T11:56:47;100434.44;;;32.73;34.31
61014;BME280;46899;47.542;19.082;2023-08-24T11:59:50;100434.50;;;32.58;34.94
61014;BME280;46899;47.542;19.082;2023-08-24T12:02:54;100432.41;;;32.54;35.63
61014;BME280;46899;47.542;19.082;2023-08-24T12:06:00;100425.69;;;32.92;35.61
61014;BME280;46899;47.542;19.082;2023-08-24T12:09:06;100423.84;;;33.20;34.26
61014;BME280;46899;47.542;19.082;2023-08-24T12:12:15;100429.78;;;33.43;33.81
61014;BME280;46899;47.542;19.082;2023-08-24T12:15:18;100427.72;;;33.45;32.06
61014;BME280;46899;47.542;19.082;2023-08-24T12:18:23;100423.56;;;33.49;32.42
61014;BME280;46899;47.542;19.082;2023-08-24T12:21:26;100419.91;;;33.57;32.27
61014;BME280;46899;47.542;19.082;2023-08-24T12:24:29;100416.44;;;33.63;31.80
61014;BME280;46899;47.542;19.082;2023-08-24T12:27:31;100408.19;;;33.43;32.36
61014;BME280;46899;47.542;19.082;2023-08-24T12:30:42;100404.50;;;33.51;32.08
61014;BME280;46899;47.542;19.082;2023-08-24T12:33:45;100401.09;;;33.36;32.19
61014;BME280;46899;47.542;19.082;2023-08-24T12:36:48;100405.97;;;33.19;31.20
61014;BME280;46899;47.542;19.082;2023-08-24T12:39:51;100411.69;;;33.03;31.60
61014;BME280;46899;47.542;19.082;2023-08-24T12:42:53;100396.13;;;33.05;32.51
61014;BME280;46899;47.542;19.082;2023-08-24T12:45:56;100388.19;;;32.97;32.90
61014;BME280;46899;47.542;19.082;2023-08-24T12:48:58;100381.72;;;32.98;32.99
61014;BME280;46899;47.542;19.082;2023-08-24T12:52:01;100388.03;;;33.05;31.50
61014;BME280;46899;47.542;19.082;2023-08-24T12:55:04;100380.38;;;33.02;32.08
61014;BME280;46899;47.542;19.082;2023-08-24T12:58:07;100385.63;;;33.17;32.15
61014;BME280;46899;47.542;19.082;2023-08-24T13:01:10;100377.50;;;33.10;32.75
61014;BME280;46899;47.542;19.082;2023-08-24T13:04:13;100371.09;;;33.18;33.24
61014;BME280;46899;47.542;19.082;2023-08-24T13:07:16;100367.75;;;33.09;32.68
61014;BME280;46899;47.542;19.082;2023-08-24T13:10:18;100364.88;;;33.17;32.24
61014;BME280;46899;47.542;19.082;2023-08-24T13:13:21;100359.78;;;33.01;32.92
61014;BME280;46899;47.542;19.082;2023-08-24T13:16:23;100354.69;;;32.85;33.39
61014;BME280;46899;47.542;19.082;2023-08-24T13:19:26;100353.19;;;32.76;33.34
61014;BME280;46899;47.542;19.082;2023-08-24T13:22:28;100348.50;;;32.63;33.02
61014;BME280;46899;47.542;19.082;2023-08-24T13:25:31;100344.25;;;32.75;33.34
61014;BME280;46899;47.542;19.082;2023-08-24T13:28:34;100342.28;;;32.63;33.89
61014;BME280;46899;47.542;19.082;2023-08-24T13:31:36;100337.00;;;32.76;34.58
61014;BME280;46899;47.542;19.082;2023-08-24T13:34:39;100336.91;;;32.90;34.29
61014;BME280;46899;47.542;19.082;2023-08-24T13:37:41;100328.03;;;32.69;33.13
61014;BME280;46899;47.542;19.082;2023-08-24T13:40:44;100333.56;;;32.61;33.90
61014;BME280;46899;47.542;19.082;2023-08-24T13:43:50;100329.75;;;32.76;34.15
61014;BME280;46899;47.542;19.082;2023-08-24T13:46:52;100332.63;;;32.75;33.70
61014;BME280;46899;47.542;19.082;2023-08-24T13:49:55;100326.59;;;32.73;34.47
61014;BME280;46899;47.542;19.082;2023-08-24T13:52:57;100328.16;;;32.88;33.96
61014;BME280;46899;47.542;19.082;2023-08-24T13:56:00;100324.53;;;32.75;33.84
61014;BME280;46899;47.542;19.082;2023-08-24T13:59:02;100325.03;;;32.85;34.79
61014;BME280;46899;47.542;19.082;2023-08-24T14:02:05;100319.41;;;32.80;33.31
61014;BME280;46899;47.542;19.082;2023-08-24T14:05:08;100327.63;;;32.72;32.88
61014;BME280;46899;47.542;19.082;2023-08-24T14:08:11;100321.41;;;32.71;34.42
61014;BME280;46899;47.542;19.082;2023-08-24T14:11:14;100314.19;;;32.51;32.31
61014;BME280;46899;47.542;19.082;2023-08-24T14:14:18;100309.91;;;32.35;33.43
61014;BME280;46899;47.542;19.082;2023-08-24T14:17:21;100304.19;;;32.44;33.53
61014;BME280;46899;47.542;19.082;2023-08-24T14:20:23;100307.47;;;32.40;33.62
61014;BME280;46899;47.542;19.082;2023-08-24T14:23:26;100307.81;;;32.30;33.29
61014;BME280;46899;47.542;19.082;2023-08-24T14:26:29;100305.91;;;32.24;34.08
61014;BME280;46899;47.542;19.082;2023-08-24T14:29:31;100298.19;;;32.21;34.26
61014;BME280;46899;47.542;19.082;2023-08-24T14:32:34;100299.38;;;32.12;35.54
61014;BME280;46899;47.542;19.082;2023-08-24T14:35:36;100289.34;;;32.06;34.78
61014;BME280;46899;47.542;19.082;2023-08-24T14:38:39;100289.94;;;32.02;34.71
61014;BME280;46899;47.542;19.082;2023-08-24T14:41:42;100293.12;;;31.91;34.69
61014;BME280;46899;47.542;19.082;2023-08-24T14:44:44;100297.03;;;31.88;34.24
61014;BME280;46899;47.542;19.082;2023-08-24T14:47:47;100293.03;;;31.63;34.59
61014;BME280;46899;47.542;19.082;2023-08-24T14:50:53;100296.78;;;31.47;34.94
61014;BME280;46899;47.542;19.082;2023-08-24T14:53:55;100292.50;;;31.53;34.33
61014;BME280;46899;47.542;19.082;2023-08-24T14:56:58;100292.62;;;31.66;33.64
61014;BME280;46899;47.542;19.082;2023-08-24T15:00:02;100290.59;;;31.68;33.86
61014;BME280;46899;47.542;19.082;2023-08-24T15:03:07;100282.28;;;31.63;34.28
61014;BME280;46899;47.542;19.082;2023-08-24T15:06:10;100293.22;;;31.61;34.90
61014;BME280;46899;47.542;19.082;2023-08-24T15:09:13;100287.66;;;31.63;34.51
61014;BME280;46899;47.542;19.082;2023-08-24T15:12:15;100293.66;;;31.44;35.04
61014;BME280;46899;47.542;19.082;2023-08-24T15:15:18;100296.34;;;31.44;35.09
61014;BME280;46899;47.542;19.082;2023-08-24T15:18:21;100295.19;;;31.38;34.83
61014;BME280;46899;47.542;19.082;2023-08-24T15:21:23;100291.03;;;31.36;35.53
61014;BME280;46899;47.542;19.082;2023-08-24T15:24:26;100298.53;;;31.26;35.43
61014;BME280;46899;47.542;19.082;2023-08-24T15:27:28;100292.72;;;31.22;35.15
61014;BME280;46899;47.542;19.082;2023-08-24T15:30:31;100293.56;;;31.23;35.49
61014;BME280;46899;47.542;19.082;2023-08-24T15:33:33;100285.22;;;31.18;35.72
61014;BME280;46899;47.542;19.082;2023-08-24T15:36:36;100282.62;;;31.09;34.74
61014;BME280;46899;47.542;19.082;2023-08-24T15:39:39;100288.69;;;30.97;36.73
61014;BME280;46899;47.542;19.082;2023-08-24T15:42:42;100283.38;;;30.89;35.94
61014;BME280;46899;47.542;19.082;2023-08-24T15:45:44;100277.34;;;30.87;36.79
61014;BME280;46899;47.542;19.082;2023-08-24T15:48:47;100279.66;;;30.75;36.81
61014;BME280;46899;47.542;19.082;2023-08-24T15:51:49;100278.16;;;30.73;36.72